sensor_id;sensor_type;location;lat;lon;timestamp;temperature;humidity
59923;DHT22;45778;51.142;3.732;2023-08-06T00:00:24;14.90;99.90
59923;DHT22;45778;51.142;3.732;2023-08-06T00:02:49;14.90;99.90
59923;DHT22;45778;51.142;3.732;2023-08-06T00:05:16;15.00;99.90
59923;DHT22;45778;51.142;3.732;2023-08-06T00:07:46;15.00;99.90
59923;DHT22;45778;51.142;3.732;2023-08-06T00:10:12;14.90;99.90
59923;DHT22;45778;51.142;3.732;2023-08-06T00:12:38;14.90;99.90
59923;DHT22;45778;51.142;3.732;2023-08-06T00:15:04;14.90;99.90
59923;DHT22;45778;51.142;3.732;2023-08-06T00:17:29;15.00;99.90
59923;DHT22;45778;51.142;3.732;2023-08-06T00:19:55;15.00;99.90
59923;DHT22;45778;51.142;3.732;2023-08-06T00:22:21;15.10;99.90
59923;DHT22;45778;51.142;3.732;2023-08-06T00:24:46;15.10;99.90
59923;DHT22;45778;51.142;3.732;2023-08-06T00:27:12;15.10;99.90
59923;DHT22;45778;51.142;3.732;2023-08-06T00:29:37;15.10;99.90
59923;DHT22;45778;51.142;3.732;2023-08-06T00:32:03;15.20;99.90
59923;DHT22;45778;51.142;3.732;2023-08-06T00:34:29;15.20;99.90
59923;DHT22;45778;51.142;3.732;2023-08-06T00:36:55;15.30;99.90
59923;DHT22;45778;51.142;3.732;2023-08-06T00:39:20;15.30;99.90
59923;DHT22;45778;51.142;3.732;2023-08-06T00:41:46;15.30;99.90
59923;DHT22;45778;51.142;3.732;2023-08-06T00:44:11;15.40;99.90
59923;DHT22;45778;51.142;3.732;2023-08-06T00:46:37;15.40;99.90
59923;DHT22;45778;51.142;3.732;2023-08-06T00:49:04;15.50;99.90
59923;DHT22;45778;51.142;3.732;2023-08-06T00:51:30;15.50;99.90
59923;DHT22;45778;51.142;3.732;2023-08-06T00:53:57;15.40;99.90
59923;DHT22;45778;51.142;3.732;2023-08-06T00:56:22;15.40;99.90
59923;DHT22;45778;51.142;3.732;2023-08-06T00:58:48;15.60;99.90
59923;DHT22;45778;51.142;3.732;2023-08-06T01:01:14;15.60;99.90
59923;DHT22;45778;51.142;3.732;2023-08-06T01:03:40;15.70;99.90
59923;DHT22;45778;51.142;3.732;2023-08-06T01:06:05;15.80;99.90
59923;DHT22;45778;51.142;3.732;2023-08-06T01:14:29;15.70;99.90
59923;DHT22;45778;51.142;3.732;2023-08-06T01:16:58;15.70;99.90
59923;DHT22;45778;51.142;3.732;2023-08-06T01:19:23;15.70;99.90
59923;DHT22;45778;51.142;3.732;2023-08-06T01:21:49;15.80;99.90
59923;DHT22;45778;51.142;3.732;2023-08-06T01:24:15;15.70;99.90
59923;DHT22;45778;51.142;3.732;2023-08-06T01:29:46;15.50;99.90
59923;DHT22;45778;51.142;3.732;2023-08-06T01:32:14;15.40;99.90
59923;DHT22;45778;51.142;3.732;2023-08-06T01:34:43;15.30;99.90
59923;DHT22;45778;51.142;3.732;2023-08-06T01:37:10;15.20;99.90
59923;DHT22;45778;51.142;3.732;2023-08-06T01:39:36;15.10;99.90
59923;DHT22;45778;51.142;3.732;2023-08-06T01:42:02;15.10;99.90
59923;DHT22;45778;51.142;3.732;2023-08-06T01:44:28;15.00;99.90
59923;DHT22;45778;51.142;3.732;2023-08-06T01:46:54;15.10;99.90
59923;DHT22;45778;51.142;3.732;2023-08-06T01:49:20;15.10;99.90
59923;DHT22;45778;51.142;3.732;2023-08-06T01:51:45;15.10;99.90
59923;DHT22;45778;51.142;3.732;2023-08-06T01:54:11;15.00;99.90
59923;DHT22;45778;51.142;3.732;2023-08-06T01:56:36;15.00;99.90
59923;DHT22;45778;51.142;3.732;2023-08-06T01:59:02;15.10;99.90
59923;DHT22;45778;51.142;3.732;2023-08-06T02:01:28;15.10;99.90
59923;DHT22;45778;51.142;3.732;2023-08-06T02:03:53;15.10;99.90
59923;DHT22;45778;51.142;3.732;2023-08-06T02:06:20;15.20;99.90
59923;DHT22;45778;51.142;3.732;2023-08-06T02:08:45;15.10;99.90
59923;DHT22;45778;51.142;3.732;2023-08-06T02:11:11;15.10;99.90
59923;DHT22;45778;51.142;3.732;2023-08-06T02:13:37;15.00;99.90
59923;DHT22;45778;51.142;3.732;2023-08-06T02:16:02;15.00;99.90
59923;DHT22;45778;51.142;3.732;2023-08-06T02:18:28;15.00;99.90
59923;DHT22;45778;51.142;3.732;2023-08-06T02:20:57;15.10;99.90
59923;DHT22;45778;51.142;3.732;2023-08-06T02:23:24;15.10;99.90
59923;DHT22;45778;51.142;3.732;2023-08-06T02:26:00;14.90;99.90
59923;DHT22;45778;51.142;3.732;2023-08-06T02:28:26;14.90;99.90
59923;DHT22;45778;51.142;3.732;2023-08-06T02:30:52;14.90;99.90
59923;DHT22;45778;51.142;3.732;2023-08-06T02:33:17;14.90;99.90
59923;DHT22;45778;51.142;3.732;2023-08-06T02:35:43;14.90;99.90
59923;DHT22;45778;51.142;3.732;2023-08-06T02:38:09;14.90;99.90
59923;DHT22;45778;51.142;3.732;2023-08-06T02:40:34;14.90;99.90
59923;DHT22;45778;51.142;3.732;2023-08-06T02:43:00;14.70;99.90
59923;DHT22;45778;51.142;3.732;2023-08-06T02:45:25;14.60;99.90
59923;DHT22;45778;51.142;3.732;2023-08-06T02:47:51;14.50;99.90
59923;DHT22;45778;51.142;3.732;2023-08-06T02:50:17;14.50;99.90
59923;DHT22;45778;51.142;3.732;2023-08-06T02:52:42;14.40;99.90
59923;DHT22;45778;51.142;3.732;2023-08-06T02:55:08;14.40;99.90
59923;DHT22;45778;51.142;3.732;2023-08-06T02:57:34;14.30;99.90
59923;DHT22;45778;51.142;3.732;2023-08-06T02:59:59;14.30;99.90
59923;DHT22;45778;51.142;3.732;2023-08-06T03:02:25;14.20;99.90
59923;DHT22;45778;51.142;3.732;2023-08-06T03:04:51;14.20;99.90
59923;DHT22;45778;51.142;3.732;2023-08-06T03:07:16;14.20;99.90
59923;DHT22;45778;51.142;3.732;2023-08-06T03:09:42;14.20;99.90
59923;DHT22;45778;51.142;3.732;2023-08-06T03:12:08;14.20;99.90
59923;DHT22;45778;51.142;3.732;2023-08-06T03:14:33;14.30;99.90
59923;DHT22;45778;51.142;3.732;2023-08-06T03:16:59;14.20;99.90
59923;DHT22;45778;51.142;3.732;2023-08-06T03:19:25;14.10;99.90
59923;DHT22;45778;51.142;3.732;2023-08-06T03:21:50;14.10;99.90
59923;DHT22;45778;51.142;3.732;2023-08-06T03:24:16;14.10;99.90
59923;DHT22;45778;51.142;3.732;2023-08-06T03:26:41;14.10;99.90
59923;DHT22;45778;51.142;3.732;2023-08-06T03:29:07;14.10;99.90
59923;DHT22;45778;51.142;3.732;2023-08-06T03:31:33;14.10;99.90
59923;DHT22;45778;51.142;3.732;2023-08-06T03:33:58;14.10;99.90
59923;DHT22;45778;51.142;3.732;2023-08-06T03:36:24;14.10;99.90
59923;DHT22;45778;51.142;3.732;2023-08-06T03:38:50;14.10;99.90
59923;DHT22;45778;51.142;3.732;2023-08-06T03:41:15;14.20;99.90
59923;DHT22;45778;51.142;3.732;2023-08-06T03:43:41;14.20;99.90
59923;DHT22;45778;51.142;3.732;2023-08-06T03:46:07;14.20;99.90
59923;DHT22;45778;51.142;3.732;2023-08-06T03:48:32;14.30;99.90
59923;DHT22;45778;51.142;3.732;2023-08-06T03:50:58;14.30;99.90
59923;DHT22;45778;51.142;3.732;2023-08-06T03:53:26;14.30;99.90
59923;DHT22;45778;51.142;3.732;2023-08-06T03:55:51;14.30;99.90
59923;DHT22;45778;51.142;3.732;2023-08-06T03:58:17;14.40;99.90
59923;DHT22;45778;51.142;3.732;2023-08-06T04:00:43;14.40;99.90
59923;DHT22;45778;51.142;3.732;2023-08-06T04:03:08;14.40;99.90
59923;DHT22;45778;51.142;3.732;2023-08-06T04:05:34;14.40;99.90
59923;DHT22;45778;51.142;3.732;2023-08-06T04:08:00;14.40;99.90
59923;DHT22;45778;51.142;3.732;2023-08-06T04:10:26;14.40;99.90
59923;DHT22;45778;51.142;3.732;2023-08-06T04:12:51;14.40;99.90
59923;DHT22;45778;51.142;3.732;2023-08-06T04:15:17;14.40;99.90
59923;DHT22;45778;51.142;3.732;2023-08-06T04:17:43;14.40;99.90
59923;DHT22;45778;51.142;3.732;2023-08-06T04:20:08;14.40;99.90
59923;DHT22;45778;51.142;3.732;2023-08-06T04:22:34;14.40;99.90
59923;DHT22;45778;51.142;3.732;2023-08-06T04:25:00;14.40;99.90
59923;DHT22;45778;51.142;3.732;2023-08-06T04:27:26;14.30;99.90
59923;DHT22;45778;51.142;3.732;2023-08-06T04:29:51;14.30;99.90
59923;DHT22;45778;51.142;3.732;2023-08-06T04:32:17;14.30;99.90
59923;DHT22;45778;51.142;3.732;2023-08-06T04:34:44;14.30;99.90
59923;DHT22;45778;51.142;3.732;2023-08-06T04:37:10;14.30;99.90
59923;DHT22;45778;51.142;3.732;2023-08-06T04:39:36;14.30;99.90
59923;DHT22;45778;51.142;3.732;2023-08-06T04:42:02;14.30;99.90
59923;DHT22;45778;51.142;3.732;2023-08-06T04:44:27;14.30;99.90
59923;DHT22;45778;51.142;3.732;2023-08-06T04:46:53;14.30;99.90
59923;DHT22;45778;51.142;3.732;2023-08-06T04:49:22;14.30;99.90
59923;DHT22;45778;51.142;3.732;2023-08-06T04:51:47;14.30;99.90
59923;DHT22;45778;51.142;3.732;2023-08-06T04:54:13;14.20;99.90
59923;DHT22;45778;51.142;3.732;2023-08-06T04:56:39;14.20;99.90
59923;DHT22;45778;51.142;3.732;2023-08-06T04:59:05;14.20;99.90
59923;DHT22;45778;51.142;3.732;2023-08-06T05:01:31;14.20;99.90
59923;DHT22;45778;51.142;3.732;2023-08-06T05:03:57;14.30;99.90
59923;DHT22;45778;51.142;3.732;2023-08-06T05:06:22;14.30;99.90
59923;DHT22;45778;51.142;3.732;2023-08-06T05:08:48;14.30;99.90
59923;DHT22;45778;51.142;3.732;2023-08-06T05:11:13;14.30;99.90
59923;DHT22;45778;51.142;3.732;2023-08-06T05:13:39;14.30;99.90
59923;DHT22;45778;51.142;3.732;2023-08-06T05:16:05;14.30;99.90
59923;DHT22;45778;51.142;3.732;2023-08-06T05:18:31;14.40;99.90
59923;DHT22;45778;51.142;3.732;2023-08-06T05:20:56;14.40;99.90
59923;DHT22;45778;51.142;3.732;2023-08-06T05:23:22;14.40;99.90
59923;DHT22;45778;51.142;3.732;2023-08-06T05:25:48;14.40;99.90
59923;DHT22;45778;51.142;3.732;2023-08-06T05:28:13;14.40;99.90
59923;DHT22;45778;51.142;3.732;2023-08-06T05:30:40;14.50;99.90
59923;DHT22;45778;51.142;3.732;2023-08-06T05:33:07;14.60;99.90
59923;DHT22;45778;51.142;3.732;2023-08-06T05:35:33;14.60;99.90
59923;DHT22;45778;51.142;3.732;2023-08-06T05:37:59;14.70;99.90
59923;DHT22;45778;51.142;3.732;2023-08-06T05:40:24;14.90;99.90
59923;DHT22;45778;51.142;3.732;2023-08-06T05:42:53;14.80;99.90
59923;DHT22;45778;51.142;3.732;2023-08-06T05:45:19;14.80;99.90
59923;DHT22;45778;51.142;3.732;2023-08-06T05:47:44;14.70;99.90
59923;DHT22;45778;51.142;3.732;2023-08-06T05:50:10;14.60;99.90
59923;DHT22;45778;51.142;3.732;2023-08-06T05:52:36;14.60;99.90
59923;DHT22;45778;51.142;3.732;2023-08-06T05:55:01;14.60;99.90
59923;DHT22;45778;51.142;3.732;2023-08-06T05:57:27;14.60;99.90
59923;DHT22;45778;51.142;3.732;2023-08-06T05:59:53;14.50;99.90
59923;DHT22;45778;51.142;3.732;2023-08-06T06:02:19;14.30;99.90
59923;DHT22;45778;51.142;3.732;2023-08-06T06:04:44;14.20;99.90
59923;DHT22;45778;51.142;3.732;2023-08-06T06:07:10;14.20;99.90
59923;DHT22;45778;51.142;3.732;2023-08-06T06:09:36;14.20;99.90
59923;DHT22;45778;51.142;3.732;2023-08-06T06:12:01;14.30;99.90
59923;DHT22;45778;51.142;3.732;2023-08-06T06:14:27;14.30;99.90
59923;DHT22;45778;51.142;3.732;2023-08-06T06:16:53;14.40;99.90
59923;DHT22;45778;51.142;3.732;2023-08-06T06:19:19;14.50;99.90
59923;DHT22;45778;51.142;3.732;2023-08-06T06:21:44;14.50;99.90
59923;DHT22;45778;51.142;3.732;2023-08-06T06:24:10;14.60;99.90
59923;DHT22;45778;51.142;3.732;2023-08-06T06:26:36;14.50;99.90
59923;DHT22;45778;51.142;3.732;2023-08-06T06:29:01;14.50;99.90
59923;DHT22;45778;51.142;3.732;2023-08-06T06:31:27;14.40;99.90
59923;DHT22;45778;51.142;3.732;2023-08-06T06:33:53;14.40;99.90
59923;DHT22;45778;51.142;3.732;2023-08-06T06:36:20;14.40;99.90
59923;DHT22;45778;51.142;3.732;2023-08-06T06:38:45;14.40;99.90
59923;DHT22;45778;51.142;3.732;2023-08-06T06:41:11;14.50;99.90
59923;DHT22;45778;51.142;3.732;2023-08-06T06:43:37;14.60;99.90
59923;DHT22;45778;51.142;3.732;2023-08-06T06:46:06;14.70;99.90
59923;DHT22;45778;51.142;3.732;2023-08-06T06:48:33;14.80;99.90
59923;DHT22;45778;51.142;3.732;2023-08-06T06:50:59;14.90;99.90
59923;DHT22;45778;51.142;3.732;2023-08-06T06:53:25;15.00;99.90
59923;DHT22;45778;51.142;3.732;2023-08-06T06:55:55;15.00;99.90
59923;DHT22;45778;51.142;3.732;2023-08-06T06:58:20;14.80;99.90
59923;DHT22;45778;51.142;3.732;2023-08-06T07:00:47;14.90;99.90
59923;DHT22;45778;51.142;3.732;2023-08-06T07:03:14;15.00;99.90
59923;DHT22;45778;51.142;3.732;2023-08-06T07:05:40;15.00;99.90
59923;DHT22;45778;51.142;3.732;2023-08-06T07:08:06;15.00;99.90
59923;DHT22;45778;51.142;3.732;2023-08-06T07:10:31;15.10;99.90
59923;DHT22;45778;51.142;3.732;2023-08-06T07:12:57;15.20;99.90
59923;DHT22;45778;51.142;3.732;2023-08-06T07:15:23;15.20;99.90
59923;DHT22;45778;51.142;3.732;2023-08-06T07:17:48;15.30;99.90
59923;DHT22;45778;51.142;3.732;2023-08-06T07:20:14;15.30;99.90
59923;DHT22;45778;51.142;3.732;2023-08-06T07:22:40;15.20;99.90
59923;DHT22;45778;51.142;3.732;2023-08-06T07:25:05;15.00;99.90
59923;DHT22;45778;51.142;3.732;2023-08-06T07:27:32;14.80;99.90
59923;DHT22;45778;51.142;3.732;2023-08-06T07:29:58;14.80;99.90
59923;DHT22;45778;51.142;3.732;2023-08-06T07:32:24;14.90;99.90
59923;DHT22;45778;51.142;3.732;2023-08-06T07:34:49;15.00;99.90
59923;DHT22;45778;51.142;3.732;2023-08-06T07:37:15;15.00;99.90
59923;DHT22;45778;51.142;3.732;2023-08-06T07:39:41;15.00;99.90
59923;DHT22;45778;51.142;3.732;2023-08-06T07:42:08;14.90;99.90
59923;DHT22;45778;51.142;3.732;2023-08-06T07:44:33;14.90;99.90
59923;DHT22;45778;51.142;3.732;2023-08-06T07:46:59;14.90;99.90
59923;DHT22;45778;51.142;3.732;2023-08-06T07:49:25;15.00;99.90
59923;DHT22;45778;51.142;3.732;2023-08-06T07:51:50;15.00;99.90
59923;DHT22;45778;51.142;3.732;2023-08-06T07:54:18;15.20;99.90
59923;DHT22;45778;51.142;3.732;2023-08-06T07:56:43;15.20;99.90
59923;DHT22;45778;51.142;3.732;2023-08-06T07:59:09;15.20;99.90
59923;DHT22;45778;51.142;3.732;2023-08-06T08:01:35;15.10;99.90
59923;DHT22;45778;51.142;3.732;2023-08-06T08:04:01;14.90;99.90
59923;DHT22;45778;51.142;3.732;2023-08-06T08:06:26;14.90;99.90
59923;DHT22;45778;51.142;3.732;2023-08-06T08:08:52;14.90;99.90
59923;DHT22;45778;51.142;3.732;2023-08-06T08:11:18;15.00;99.90
59923;DHT22;45778;51.142;3.732;2023-08-06T08:13:44;15.10;99.90
59923;DHT22;45778;51.142;3.732;2023-08-06T08:16:10;15.20;99.90
59923;DHT22;45778;51.142;3.732;2023-08-06T08:18:35;15.30;99.90
59923;DHT22;45778;51.142;3.732;2023-08-06T08:21:01;15.30;99.90
59923;DHT22;45778;51.142;3.732;2023-08-06T08:23:27;15.30;99.90
59923;DHT22;45778;51.142;3.732;2023-08-06T08:25:52;15.30;99.90
59923;DHT22;45778;51.142;3.732;2023-08-06T08:28:18;15.30;99.90
59923;DHT22;45778;51.142;3.732;2023-08-06T08:30:44;15.30;99.90
59923;DHT22;45778;51.142;3.732;2023-08-06T08:33:10;15.20;99.90
59923;DHT22;45778;51.142;3.732;2023-08-06T08:35:36;15.00;99.90
59923;DHT22;45778;51.142;3.732;2023-08-06T08:38:02;14.90;99.90
59923;DHT22;45778;51.142;3.732;2023-08-06T08:40:32;14.80;99.90
59923;DHT22;45778;51.142;3.732;2023-08-06T08:42:59;14.70;99.90
59923;DHT22;45778;51.142;3.732;2023-08-06T08:45:27;14.70;99.90
59923;DHT22;45778;51.142;3.732;2023-08-06T08:47:54;14.70;99.90
59923;DHT22;45778;51.142;3.732;2023-08-06T08:50:20;14.70;99.90
59923;DHT22;45778;51.142;3.732;2023-08-06T08:52:46;14.90;99.90
59923;DHT22;45778;51.142;3.732;2023-08-06T08:55:15;15.10;99.90
59923;DHT22;45778;51.142;3.732;2023-08-06T08:57:41;15.20;99.90
59923;DHT22;45778;51.142;3.732;2023-08-06T09:00:07;15.30;99.90
59923;DHT22;45778;51.142;3.732;2023-08-06T09:02:33;15.30;99.90
59923;DHT22;45778;51.142;3.732;2023-08-06T09:05:04;15.20;99.90
59923;DHT22;45778;51.142;3.732;2023-08-06T09:07:47;15.10;99.90
59923;DHT22;45778;51.142;3.732;2023-08-06T09:10:15;14.90;99.90
59923;DHT22;45778;51.142;3.732;2023-08-06T09:12:43;14.90;99.90
59923;DHT22;45778;51.142;3.732;2023-08-06T09:15:10;15.00;99.90
59923;DHT22;45778;51.142;3.732;2023-08-06T09:17:36;15.10;99.90
59923;DHT22;45778;51.142;3.732;2023-08-06T09:20:12;15.30;99.90
59923;DHT22;45778;51.142;3.732;2023-08-06T09:22:39;15.60;99.90
59923;DHT22;45778;51.142;3.732;2023-08-06T09:25:06;15.90;99.90
59923;DHT22;45778;51.142;3.732;2023-08-06T09:27:36;16.10;99.90
59923;DHT22;45778;51.142;3.732;2023-08-06T09:30:03;16.10;99.90
59923;DHT22;45778;51.142;3.732;2023-08-06T09:32:47;16.00;99.90
59923;DHT22;45778;51.142;3.732;2023-08-06T09:35:19;16.10;99.90
59923;DHT22;45778;51.142;3.732;2023-08-06T09:37:46;16.40;99.90
59923;DHT22;45778;51.142;3.732;2023-08-06T09:40:29;16.60;99.90
59923;DHT22;45778;51.142;3.732;2023-08-06T09:42:55;16.60;99.90
59923;DHT22;45778;51.142;3.732;2023-08-06T09:45:21;16.20;99.90
59923;DHT22;45778;51.142;3.732;2023-08-06T09:47:50;15.60;99.90
59923;DHT22;45778;51.142;3.732;2023-08-06T09:50:21;15.00;99.90
59923;DHT22;45778;51.142;3.732;2023-08-06T09:52:47;14.70;99.90
59923;DHT22;45778;51.142;3.732;2023-08-06T09:55:14;14.60;99.90
59923;DHT22;45778;51.142;3.732;2023-08-06T09:57:41;14.60;99.90
59923;DHT22;45778;51.142;3.732;2023-08-06T10:00:10;14.70;99.90
59923;DHT22;45778;51.142;3.732;2023-08-06T10:02:40;14.70;99.90
59923;DHT22;45778;51.142;3.732;2023-08-06T10:05:08;14.60;99.90
59923;DHT22;45778;51.142;3.732;2023-08-06T10:07:34;14.60;99.90
59923;DHT22;45778;51.142;3.732;2023-08-06T10:10:00;14.60;99.90
59923;DHT22;45778;51.142;3.732;2023-08-06T10:12:29;14.70;99.90
59923;DHT22;45778;51.142;3.732;2023-08-06T10:14:57;14.80;99.90
59923;DHT22;45778;51.142;3.732;2023-08-06T10:17:25;14.90;99.90
59923;DHT22;45778;51.142;3.732;2023-08-06T10:19:51;15.10;99.90
59923;DHT22;45778;51.142;3.732;2023-08-06T10:22:20;15.30;99.90
59923;DHT22;45778;51.142;3.732;2023-08-06T10:24:51;15.40;99.90
59923;DHT22;45778;51.142;3.732;2023-08-06T10:27:40;15.40;99.90
59923;DHT22;45778;51.142;3.732;2023-08-06T10:30:26;15.40;99.90
59923;DHT22;45778;51.142;3.732;2023-08-06T10:32:54;15.40;99.90
59923;DHT22;45778;51.142;3.732;2023-08-06T10:35:29;15.30;99.90
59923;DHT22;45778;51.142;3.732;2023-08-06T10:38:00;15.40;99.90
59923;DHT22;45778;51.142;3.732;2023-08-06T10:40:28;15.50;99.90
59923;DHT22;45778;51.142;3.732;2023-08-06T10:42:55;15.40;99.90
59923;DHT22;45778;51.142;3.732;2023-08-06T10:45:21;15.40;99.90
59923;DHT22;45778;51.142;3.732;2023-08-06T10:47:49;15.40;99.90
59923;DHT22;45778;51.142;3.732;2023-08-06T10:50:16;15.00;99.90
59923;DHT22;45778;51.142;3.732;2023-08-06T10:52:46;14.80;99.90
59923;DHT22;45778;51.142;3.732;2023-08-06T10:55:23;14.50;99.90
59923;DHT22;45778;51.142;3.732;2023-08-06T10:57:49;14.30;99.90
59923;DHT22;45778;51.142;3.732;2023-08-06T11:00:15;14.30;99.90
59923;DHT22;45778;51.142;3.732;2023-08-06T11:02:41;14.30;99.90
59923;DHT22;45778;51.142;3.732;2023-08-06T11:05:08;14.40;99.90
59923;DHT22;45778;51.142;3.732;2023-08-06T11:07:35;14.50;99.90
59923;DHT22;45778;51.142;3.732;2023-08-06T11:10:06;14.70;99.90
59923;DHT22;45778;51.142;3.732;2023-08-06T11:12:32;14.90;99.90
59923;DHT22;45778;51.142;3.732;2023-08-06T11:14:59;14.60;99.90
59923;DHT22;45778;51.142;3.732;2023-08-06T11:17:25;14.50;99.90
59923;DHT22;45778;51.142;3.732;2023-08-06T11:19:52;14.50;99.90
59923;DHT22;45778;51.142;3.732;2023-08-06T11:22:18;14.60;99.90
59923;DHT22;45778;51.142;3.732;2023-08-06T11:24:43;14.60;99.90
59923;DHT22;45778;51.142;3.732;2023-08-06T11:27:13;14.70;99.90
59923;DHT22;45778;51.142;3.732;2023-08-06T11:29:40;14.90;99.90
59923;DHT22;45778;51.142;3.732;2023-08-06T11:32:06;15.20;99.90
59923;DHT22;45778;51.142;3.732;2023-08-06T11:34:32;15.30;99.90
59923;DHT22;45778;51.142;3.732;2023-08-06T11:36:57;15.20;99.90
59923;DHT22;45778;51.142;3.732;2023-08-06T11:39:24;15.20;99.90
59923;DHT22;45778;51.142;3.732;2023-08-06T11:41:50;15.30;99.90
59923;DHT22;45778;51.142;3.732;2023-08-06T11:44:17;15.40;99.90
59923;DHT22;45778;51.142;3.732;2023-08-06T11:46:55;15.50;99.90
59923;DHT22;45778;51.142;3.732;2023-08-06T11:52:12;15.30;99.90
59923;DHT22;45778;51.142;3.732;2023-08-06T11:54:38;14.90;99.90
59923;DHT22;45778;51.142;3.732;2023-08-06T11:57:07;14.70;99.90
59923;DHT22;45778;51.142;3.732;2023-08-06T11:59:33;14.70;99.90
59923;DHT22;45778;51.142;3.732;2023-08-06T12:02:09;14.80;99.90
59923;DHT22;45778;51.142;3.732;2023-08-06T12:05:00;15.30;99.90
59923;DHT22;45778;51.142;3.732;2023-08-06T12:07:30;15.70;99.90
59923;DHT22;45778;51.142;3.732;2023-08-06T12:09:57;15.80;99.90
59923;DHT22;45778;51.142;3.732;2023-08-06T12:12:23;15.80;99.90
59923;DHT22;45778;51.142;3.732;2023-08-06T12:14:49;15.90;99.90
59923;DHT22;45778;51.142;3.732;2023-08-06T12:17:14;15.90;99.90
59923;DHT22;45778;51.142;3.732;2023-08-06T12:19:40;15.80;99.90
59923;DHT22;45778;51.142;3.732;2023-08-06T12:22:06;15.60;99.90
59923;DHT22;45778;51.142;3.732;2023-08-06T12:24:31;15.60;99.90
59923;DHT22;45778;51.142;3.732;2023-08-06T12:26:58;15.50;99.90
59923;DHT22;45778;51.142;3.732;2023-08-06T12:29:26;15.50;99.90
59923;DHT22;45778;51.142;3.732;2023-08-06T12:31:52;15.50;99.90
59923;DHT22;45778;51.142;3.732;2023-08-06T12:34:17;15.40;99.90
59923;DHT22;45778;51.142;3.732;2023-08-06T12:36:43;15.10;99.90
59923;DHT22;45778;51.142;3.732;2023-08-06T12:39:08;14.90;99.90
59923;DHT22;45778;51.142;3.732;2023-08-06T12:41:34;14.70;99.90
59923;DHT22;45778;51.142;3.732;2023-08-06T12:44:00;14.60;99.90
59923;DHT22;45778;51.142;3.732;2023-08-06T12:46:26;14.60;99.90
59923;DHT22;45778;51.142;3.732;2023-08-06T12:48:51;14.70;99.90
59923;DHT22;45778;51.142;3.732;2023-08-06T12:51:17;14.70;99.90
59923;DHT22;45778;51.142;3.732;2023-08-06T12:53:43;14.60;99.90
59923;DHT22;45778;51.142;3.732;2023-08-06T12:56:08;14.60;99.90
59923;DHT22;45778;51.142;3.732;2023-08-06T12:58:34;14.60;99.90
59923;DHT22;45778;51.142;3.732;2023-08-06T13:01:00;14.50;99.90
59923;DHT22;45778;51.142;3.732;2023-08-06T13:03:26;14.40;99.90
59923;DHT22;45778;51.142;3.732;2023-08-06T13:05:51;14.50;99.90
59923;DHT22;45778;51.142;3.732;2023-08-06T13:08:17;14.50;99.90
59923;DHT22;45778;51.142;3.732;2023-08-06T13:10:43;14.40;99.90
59923;DHT22;45778;51.142;3.732;2023-08-06T13:13:09;14.40;99.90
59923;DHT22;45778;51.142;3.732;2023-08-06T13:15:36;14.40;99.90
59923;DHT22;45778;51.142;3.732;2023-08-06T13:18:01;14.20;99.90
59923;DHT22;45778;51.142;3.732;2023-08-06T13:20:30;14.20;99.90
59923;DHT22;45778;51.142;3.732;2023-08-06T13:22:57;14.10;99.90
59923;DHT22;45778;51.142;3.732;2023-08-06T13:25:23;14.00;99.90
59923;DHT22;45778;51.142;3.732;2023-08-06T13:27:49;14.00;99.90
59923;DHT22;45778;51.142;3.732;2023-08-06T13:30:15;14.00;99.90
59923;DHT22;45778;51.142;3.732;2023-08-06T13:32:43;14.10;99.90
59923;DHT22;45778;51.142;3.732;2023-08-06T13:35:09;14.10;99.90
59923;DHT22;45778;51.142;3.732;2023-08-06T13:37:35;14.20;99.90
59923;DHT22;45778;51.142;3.732;2023-08-06T13:40:01;14.30;99.90
59923;DHT22;45778;51.142;3.732;2023-08-06T13:42:29;14.40;99.90
59923;DHT22;45778;51.142;3.732;2023-08-06T13:44:55;14.50;99.90
59923;DHT22;45778;51.142;3.732;2023-08-06T13:47:27;14.70;99.90
59923;DHT22;45778;51.142;3.732;2023-08-06T13:49:53;14.80;99.90
59923;DHT22;45778;51.142;3.732;2023-08-06T13:52:19;14.90;99.90
59923;DHT22;45778;51.142;3.732;2023-08-06T13:54:45;14.90;99.90
59923;DHT22;45778;51.142;3.732;2023-08-06T13:57:10;15.00;99.90
59923;DHT22;45778;51.142;3.732;2023-08-06T13:59:37;15.30;99.90
59923;DHT22;45778;51.142;3.732;2023-08-06T14:02:03;15.50;99.90
59923;DHT22;45778;51.142;3.732;2023-08-06T14:04:29;16.10;99.90
59923;DHT22;45778;51.142;3.732;2023-08-06T14:06:55;16.90;99.90
59923;DHT22;45778;51.142;3.732;2023-08-06T14:09:20;17.20;99.90
59923;DHT22;45778;51.142;3.732;2023-08-06T14:11:46;17.10;99.90
59923;DHT22;45778;51.142;3.732;2023-08-06T14:14:12;17.70;99.90
59923;DHT22;45778;51.142;3.732;2023-08-06T14:16:37;18.90;99.90
59923;DHT22;45778;51.142;3.732;2023-08-06T14:19:03;19.70;99.90
59923;DHT22;45778;51.142;3.732;2023-08-06T14:21:29;20.10;99.90
59923;DHT22;45778;51.142;3.732;2023-08-06T14:23:55;19.10;99.90
59923;DHT22;45778;51.142;3.732;2023-08-06T14:26:20;18.70;99.90
59923;DHT22;45778;51.142;3.732;2023-08-06T14:28:46;18.30;99.90
59923;DHT22;45778;51.142;3.732;2023-08-06T14:31:12;18.40;99.90
59923;DHT22;45778;51.142;3.732;2023-08-06T14:33:37;18.40;99.90
59923;DHT22;45778;51.142;3.732;2023-08-06T14:36:03;18.60;99.90
59923;DHT22;45778;51.142;3.732;2023-08-06T14:38:29;18.60;99.90
59923;DHT22;45778;51.142;3.732;2023-08-06T14:40:55;18.80;99.90
59923;DHT22;45778;51.142;3.732;2023-08-06T14:43:20;18.40;99.90
59923;DHT22;45778;51.142;3.732;2023-08-06T14:45:46;18.10;99.90
59923;DHT22;45778;51.142;3.732;2023-08-06T14:48:12;17.80;99.90
59923;DHT22;45778;51.142;3.732;2023-08-06T14:50:38;17.50;99.90
59923;DHT22;45778;51.142;3.732;2023-08-06T14:53:05;17.20;99.90
59923;DHT22;45778;51.142;3.732;2023-08-06T14:55:31;17.00;99.90
59923;DHT22;45778;51.142;3.732;2023-08-06T14:57:57;17.20;99.90
59923;DHT22;45778;51.142;3.732;2023-08-06T15:00:23;17.20;99.90
59923;DHT22;45778;51.142;3.732;2023-08-06T15:02:48;17.30;99.90
59923;DHT22;45778;51.142;3.732;2023-08-06T15:05:14;17.30;99.90
59923;DHT22;45778;51.142;3.732;2023-08-06T15:07:40;17.30;99.90
59923;DHT22;45778;51.142;3.732;2023-08-06T15:10:06;17.50;99.90
59923;DHT22;45778;51.142;3.732;2023-08-06T15:12:32;18.30;99.90
59923;DHT22;45778;51.142;3.732;2023-08-06T15:14:58;19.10;99.90
59923;DHT22;45778;51.142;3.732;2023-08-06T15:17:26;19.30;99.90
59923;DHT22;45778;51.142;3.732;2023-08-06T15:19:52;19.70;99.90
59923;DHT22;45778;51.142;3.732;2023-08-06T15:22:18;20.90;99.90
59923;DHT22;45778;51.142;3.732;2023-08-06T15:24:43;22.00;99.00
59923;DHT22;45778;51.142;3.732;2023-08-06T15:27:09;21.50;98.70
59923;DHT22;45778;51.142;3.732;2023-08-06T15:29:35;20.20;99.90
59923;DHT22;45778;51.142;3.732;2023-08-06T15:32:02;19.70;99.90
59923;DHT22;45778;51.142;3.732;2023-08-06T15:34:28;19.30;99.90
59923;DHT22;45778;51.142;3.732;2023-08-06T15:36:53;19.50;99.90